ホノルル の空港の天気 - METARとTAF

ホノルル国際空港 ( PHNL / HNL ) - アメリカ合衆国 ハワイ州ホノルル
飛行場実況気象(Metar)
観測時間07/28 01:53 HST (07/28 11:53 UTC)
風向・風速北東 4m/s
視程10km以上
天気現象
少しの雲 雲底高度 940m
全天の4割程度の雲 雲底高度 1340m
全天の8割程度の雲 雲底高度 1830m
気温25.6℃
湿度71%
気圧1015hPa
METARPHNL 281153Z 05007KT 10SM FEW031 SCT044 BKN060 26/20 A2997 RMK AO2 SLP150 T02560200 10261 20256 56013
過去の天気等 Google飛行場航空写真 Wunderground天気予報

過去48時間のMETAR

飛行場予報(TAF)
発表時間: 7/28 01:30 HST (7/28 11:30 UTC)
予報対象時間: 28日2時 HST ~ 29日8時 HST
風向・風速東北東 5m/s
視程10km以上
天気現象周辺でしゅう雨
少しの雲 雲底高度 760m
全天の4割程度の雲 雲底高度 1,520m
28日9時 HST から
風向・風速北東 6m/s 瞬間風速 10m/s
視程10km以上
天気現象弱いしゅう雨
全天の4割程度の雲 雲底高度 760m
全天の8割程度の雲 雲底高度 1,520m
28日12時 HST ~ 28日16時 HST に一時的に
視程6,440m
天気現象しゅう雨
全天の8割程度の雲 雲底高度 760m
全天を覆う雲 雲底高度 1,220m
28日20時 HST から
風向・風速北東 4m/s
視程10km以上
天気現象周辺でしゅう雨
全天の4割程度の雲 雲底高度 760m
全天の8割程度の雲 雲底高度 1,520m
PHNL 281130Z 2812/2918 06009KT P6SM VCSH FEW025 SCT050
FM281900 05012G20KT 6SM -SHRA SCT025 BKN050
TEMPO 2822/2902 4SM SHRA BKN025 OVC040
FM290600 05007KT P6SM VCSH SCT025 BKN050